Time;durP1;ratioP1;P1;durP2;ratioP2;P2;SDS_P1;SDS_P2;PMS_P1;PMS_P2;Temp;Humidity;BMP_temperature;BMP_pressure;BME280_temperature;BME280_humidity;BME280_pressure;Samples;Min_cycle;Max_cycle;Signal;HPM_P1;HPM_P2
2021/12/21 00:00:19;;;;;;;9.50;7.30;;;;;;;-143.84;94.33;44005.75;5091859;28;20442;-69
2021/12/21 00:02:50;;;;;;;12.03;9.10;;;;;;;-143.84;94.12;44013.38;5092175;28;20440;-70
2021/12/21 00:05:20;;;;;;;13.40;10.33;;;;;;;-143.84;94.21;44020.97;5092120;28;20444;-70
2021/12/21 00:07:49;;;;;;;13.20;9.37;;;;;;;-143.84;94.09;44007.66;5091702;28;20440;-69
2021/12/21 00:10:17;;;;;;;15.00;10.13;;;;;;;-143.84;94.29;43982.91;5091827;28;20451;-69
2021/12/21 00:13:00;;;;;;;15.43;9.63;;;;;;;-143.84;94.31;43977.19;5092923;28;20467;-70
2021/12/21 00:15:37;;;;;;;9.30;8.17;;;;;;;-143.84;94.57;43975.28;5093854;28;20431;-71
2021/12/21 00:18:17;;;;;;;11.97;8.60;;;;;;;-143.84;94.58;43935.31;5093504;28;20432;-71
2021/12/21 00:20:55;;;;;;;15.23;9.47;;;;;;;-143.84;94.59;43933.41;5093267;28;20480;-71
2021/12/21 00:23:34;;;;;;;14.57;10.80;;;;;;;-143.84;94.99;43960.06;5093004;28;20788;-70
2021/12/21 00:26:04;;;;;;;13.33;9.53;;;;;;;-143.84;94.76;43920.09;5091258;28;20538;-69
2021/12/21 00:28:37;;;;;;;17.23;11.40;;;;;;;-143.84;94.71;43941.03;5091164;28;20510;-70
2021/12/21 00:31:04;;;;;;;16.77;11.40;;;;;;;-143.84;94.53;43971.47;5091259;28;20945;-70
2021/12/21 00:33:33;;;;;;;17.47;11.80;;;;;;;-143.84;94.23;43958.16;5091191;28;20980;-70
2021/12/21 00:36:00;;;;;;;14.13;10.37;;;;;;;-143.84;94.19;44015.25;5091257;28;20954;-70
2021/12/21 00:38:28;;;;;;;12.47;10.53;;;;;;;-143.84;93.53;44089.50;5091042;28;20448;-69
2021/12/21 00:40:55;;;;;;;18.47;11.80;;;;;;;-143.84;93.40;44137.09;5091012;28;20436;-70
2021/12/21 00:43:22;;;;;;;15.70;10.50;;;;;;;-143.84;93.07;44245.59;5090694;28;20477;-70
2021/12/21 00:45:49;;;;;;;16.00;10.03;;;;;;;-143.84;92.77;44298.91;5090949;28;20443;-69
2021/12/21 00:48:17;;;;;;;19.50;11.70;;;;;;;-143.84;92.17;44489.28;5090963;28;20439;-69
2021/12/21 00:50:46;;;;;;;15.57;10.20;;;;;;;-143.84;91.89;44603.53;5091021;28;20432;-69
2021/12/21 00:53:13;;;;;;;15.37;10.47;;;;;;;-143.84;91.41;44712.06;5090845;28;20490;-69
2021/12/21 00:55:41;;;;;;;15.20;10.97;;;;;;;-143.84;91.45;44772.97;5090011;28;20494;-69
2021/12/21 00:58:08;;;;;;;15.93;10.80;;;;;;;-143.84;90.80;44828.19;5090305;28;20454;-69
2021/12/21 01:00:35;;;;;;;14.67;10.57;;;;;;;-143.84;90.72;44858.66;5090090;28;20432;-69
2021/12/21 01:03:09;;;;;;;17.40;10.40;;;;;;;-143.84;90.54;44889.13;5090142;28;20865;-69
2021/12/21 01:05:43;;;;;;;15.17;10.40;;;;;;;-143.84;90.21;44961.47;5090612;28;21190;-69
2021/12/21 01:08:17;;;;;;;13.27;8.50;;;;;;;-143.84;89.68;45016.69;5090377;28;20501;-69
2021/12/21 01:10:54;;;;;;;11.90;8.37;;;;;;;-143.84;88.76;45012.88;5090614;28;20444;-69
2021/12/21 01:13:37;;;;;;;12.10;8.50;;;;;;;-143.84;88.34;45079.53;5090520;28;20543;-69
2021/12/21 01:16:17;;;;;;;10.83;8.60;;;;;;;-143.84;87.55;45148.09;5089959;28;20444;-69
2021/12/21 01:19:00;;;;;;;12.33;9.80;;;;;;;-143.84;86.90;45170.94;5073297;28;20961;-69
2021/12/21 01:21:31;;;;;;;12.40;7.50;;;;;;;-143.84;86.43;45140.47;5089878;28;20447;-69
2021/12/21 01:26:53;;;;;;;9.50;7.53;;;;;;;-143.84;86.45;45191.88;5076246;28;20436;-69
2021/12/21 01:29:27;;;;;;;11.40;7.83;;;;;;;-143.84;86.03;45159.50;5090328;28;20439;-74
2021/12/21 01:32:02;;;;;;;10.73;8.20;;;;;;;-143.84;85.81;45172.84;5087516;28;20439;-74
2021/12/21 01:34:41;;;;;;;12.30;7.27;;;;;;;-143.84;85.69;45220.44;5090966;28;20581;-74
2021/12/21 01:37:16;;;;;;;9.97;8.20;;;;;;;-143.84;84.92;45180.47;5089633;28;21320;-74
2021/12/21 01:39:58;;;;;;;9.93;6.97;;;;;;;-143.84;85.13;45212.84;5089563;28;20448;-74
2021/12/21 01:42:37;;;;;;;10.90;7.60;;;;;;;-143.84;85.09;45197.59;5089179;28;20456;-74
2021/12/21 01:50:35;;;;;;;11.20;7.27;;;;;;;-143.84;85.87;45176.66;5088901;28;20528;-69
2021/12/21 01:53:02;;;;;;;10.60;7.50;;;;;;;-143.84;86.06;45189.97;5086846;28;20545;-69
2021/12/21 01:55:31;;;;;;;8.73;6.77;;;;;;;-143.84;85.88;45199.50;5088053;28;20447;-70
2021/12/21 01:57:58;;;;;;;9.60;6.77;;;;;;;-143.84;85.79;45205.22;5087789;28;20548;-70
2021/12/21 02:00:27;;;;;;;9.00;7.00;;;;;;;-143.84;85.23;45212.84;5088214;28;20443;-70
2021/12/21 02:02:54;;;;;;;11.27;6.50;;;;;;;-143.84;85.01;45203.31;5069897;28;20844;-70
2021/12/21 02:05:21;;;;;;;7.83;5.63;;;;;;;-143.84;84.64;45226.16;5088944;28;20440;-70
2021/12/21 02:07:48;;;;;;;8.00;6.13;;;;;;;-143.84;84.71;45235.69;5089389;28;21017;-69
2021/12/21 02:10:16;;;;;;;9.50;7.27;;;;;;;-143.84;84.35;45212.84;5088970;28;20463;-70
2021/12/21 02:12:44;;;;;;;8.03;5.83;;;;;;;-143.84;84.63;45209.03;5088998;28;20451;-69
2021/12/21 02:15:11;;;;;;;8.57;5.37;;;;;;;-143.84;84.34;45197.59;5087598;28;20487;-69
2021/12/21 02:18:16;;;;;;;8.23;6.20;;;;;;;-143.84;84.28;45210.94;5089154;28;21039;-70
2021/12/21 02:20:46;;;;;;;7.47;5.90;;;;;;;-143.84;84.27;45216.63;5088799;28;20447;-70
2021/12/21 02:23:18;;;;;;;5.70;5.17;;;;;;;-143.84;84.23;45207.13;5088703;28;20479;-70
2021/12/21 02:26:08;;;;;;;8.53;5.27;;;;;;;-143.84;84.14;45235.69;5089102;28;20439;-69
2021/12/21 02:31:19;;;;;;;5.90;4.70;;;;;;;-143.84;83.85;45216.63;5081293;28;20497;-70
2021/12/21 02:33:48;;;;;;;5.27;4.70;;;;;;;-143.84;83.91;45233.78;5088145;28;20494;-70
2021/12/21 02:36:17;;;;;;;7.10;5.70;;;;;;;-143.84;83.96;45247.09;5087630;28;20961;-70
2021/12/21 02:38:44;;;;;;;6.80;5.10;;;;;;;-143.84;84.19;45220.44;5088124;28;20538;-70
2021/12/21 02:41:11;;;;;;;6.93;5.90;;;;;;;-143.84;84.04;45226.16;5077471;28;21031;-69
2021/12/21 02:43:38;;;;;;;8.97;5.73;;;;;;;-143.84;84.03;45216.63;5080105;28;20432;-69
2021/12/21 02:46:07;;;;;;;7.73;6.50;;;;;;;-143.84;84.05;45207.13;5088432;28;20440;-69
2021/12/21 02:48:35;;;;;;;5.97;5.00;;;;;;;-143.84;83.91;45218.53;5085882;28;20450;-69
2021/12/21 02:51:02;;;;;;;5.73;5.13;;;;;;;-143.84;83.66;45199.50;5088867;28;20533;-69
2021/12/21 02:53:31;;;;;;;7.93;6.50;;;;;;;-143.84;83.61;45209.03;5088818;28;20526;-69
2021/12/21 02:55:58;;;;;;;6.10;5.47;;;;;;;-143.84;83.62;45216.63;5088680;28;20451;-69
2021/12/21 02:58:26;;;;;;;7.90;6.40;;;;;;;-143.84;83.43;45224.25;5088605;28;20481;-69
2021/12/21 03:00:54;;;;;;;10.63;6.50;;;;;;;-143.84;83.57;45224.25;5088615;28;20485;-69
2021/12/21 03:03:21;;;;;;;10.63;6.23;;;;;;;-143.84;83.63;45220.44;5088747;28;20448;-69
2021/12/21 03:05:52;;;;;;;6.43;5.77;;;;;;;-143.84;83.69;45199.50;5088698;28;20436;-69
2021/12/21 03:08:22;;;;;;;7.53;6.23;;;;;;;-143.84;83.70;45222.34;5088732;28;20523;-69
2021/12/21 03:11:17;;;;;;;9.03;6.70;;;;;;;-143.84;83.59;45231.88;5088584;28;20448;-69
2021/12/21 03:14:03;;;;;;;7.00;6.37;;;;;;;-143.84;83.43;45174.75;5088586;28;20480;-69
2021/12/21 03:16:32;;;;;;;8.60;5.30;;;;;;;-143.84;83.35;45229.97;5088231;28;20828;-69
2021/12/21 03:18:59;;;;;;;6.50;5.90;;;;;;;-143.84;83.44;45201.41;5088457;28;20892;-69
2021/12/21 03:21:27;;;;;;;5.60;4.97;;;;;;;-143.84;83.46;45233.78;5088799;28;20848;-69
2021/12/21 03:23:55;;;;;;;7.83;5.83;;;;;;;-143.84;83.29;45224.25;5088331;28;20480;-69
2021/12/21 03:26:24;;;;;;;6.77;5.53;;;;;;;-143.84;84.12;45220.44;5088558;28;20436;-69
2021/12/21 03:28:52;;;;;;;8.73;6.70;;;;;;;-143.84;85.35;45195.69;5088588;28;20473;-69
2021/12/21 03:31:20;;;;;;;11.20;7.20;;;;;;;-143.84;86.43;45159.50;5088441;28;20501;-69
2021/12/21 03:33:49;;;;;;;14.70;7.30;;;;;;;-143.84;87.19;45148.09;5088071;28;21055;-69
2021/12/21 03:36:17;;;;;;;8.63;6.80;;;;;;;-143.84;88.14;45130.94;5088226;28;20436;-69
2021/12/21 03:38:51;;;;;;;8.20;7.17;;;;;;;-143.84;88.61;45087.16;5087135;28;20442;-69
2021/12/21 03:41:19;;;;;;;9.70;6.90;;;;;;;-143.84;89.37;45062.41;5088517;28;20449;-74
2021/12/21 03:43:48;;;;;;;8.57;7.73;;;;;;;-143.84;89.67;45041.44;5089083;28;20444;-74
2021/12/21 03:46:16;;;;;;;10.97;7.20;;;;;;;-143.84;90.31;44984.31;5089147;28;20440;-74
2021/12/21 03:48:46;;;;;;;12.27;7.63;;;;;;;-143.84;90.33;44925.31;5092744;28;20450;-74
2021/12/21 03:51:14;;;;;;;8.53;7.47;;;;;;;-143.84;90.60;44944.34;5092707;28;20452;-74
2021/12/21 03:53:41;;;;;;;13.27;8.07;;;;;;;-143.84;91.06;44837.72;5092622;28;20486;-74
2021/12/21 03:56:31;;;;;;;10.83;7.97;;;;;;;-143.84;91.03;44862.47;5092820;28;21253;-74
2021/12/21 03:59:00;;;;;;;11.13;7.93;;;;;;;-143.84;91.29;44811.06;5092665;28;20435;-74
2021/12/21 04:01:27;;;;;;;9.43;6.70;;;;;;;-143.84;91.54;44776.78;5089778;28;20455;-74
2021/12/21 04:03:54;;;;;;;12.73;7.60;;;;;;;-143.84;91.69;44772.97;5091462;28;20448;-74
2021/12/21 04:06:21;;;;;;;11.93;7.73;;;;;;;-143.84;91.92;44700.63;5092115;28;20442;-74
2021/12/21 04:08:49;;;;;;;13.13;7.90;;;;;;;-143.84;91.57;44736.81;5092552;28;20929;-74
2021/12/21 04:11:16;;;;;;;9.20;7.73;;;;;;;-143.84;91.65;44757.75;5092675;28;20428;-74
2021/12/21 04:13:43;;;;;;;13.80;7.43;;;;;;;-143.84;91.80;44717.75;5092081;28;20440;-74
2021/12/21 04:16:11;;;;;;;9.13;7.10;;;;;;;-143.84;91.68;44721.56;5092356;28;20443;-74
2021/12/21 04:18:39;;;;;;;9.30;6.90;;;;;;;-143.84;91.67;44710.16;5091610;28;20440;-74
2021/12/21 04:21:11;;;;;;;8.60;6.93;;;;;;;-143.84;91.73;44776.78;5090898;28;20442;-74
2021/12/21 04:23:40;;;;;;;10.33;7.73;;;;;;;-143.84;91.38;44841.53;5105546;28;20513;-74
2021/12/21 04:26:07;;;;;;;10.80;7.40;;;;;;;-143.84;91.14;44811.06;5093619;28;20522;-74
2021/12/21 04:28:34;;;;;;;10.40;6.60;;;;;;;-143.84;90.91;44862.47;5111722;28;20963;-74
2021/12/21 04:31:02;;;;;;;11.40;7.83;;;;;;;-143.84;91.11;44826.28;5112034;28;20431;-74
2021/12/21 04:33:31;;;;;;;12.27;7.10;;;;;;;-143.84;91.00;44858.66;5111792;28;20457;-74
2021/12/21 04:35:58;;;;;;;11.80;7.37;;;;;;;-143.84;90.99;44845.31;5106810;28;20485;-74
2021/12/21 04:38:30;;;;;;;7.67;6.77;;;;;;;-143.84;90.73;44854.84;5072077;28;20433;-76
2021/12/21 04:41:05;;;;;;;12.63;8.20;;;;;;;-143.84;90.79;44944.34;5071987;28;20431;-75
2021/12/21 04:43:32;;;;;;;9.03;7.73;;;;;;;-143.84;90.82;44913.88;5071795;28;20907;-74
2021/12/21 04:46:00;;;;;;;14.87;7.47;;;;;;;-143.84;90.71;44871.97;5071278;28;20490;-73
2021/12/21 04:48:28;;;;;;;10.10;7.97;;;;;;;-143.84;90.49;44946.25;5071133;28;20444;-73
2021/12/21 04:50:57;;;;;;;12.10;8.57;;;;;;;-143.84;90.98;44847.22;5070740;28;20460;-74
2021/12/21 04:53:25;;;;;;;13.90;7.90;;;;;;;-143.84;90.58;44957.66;5071191;28;20978;-75
2021/12/21 04:55:52;;;;;;;10.77;7.70;;;;;;;-143.84;90.27;44984.31;5070835;28;20468;-76
2021/12/21 04:58:20;;;;;;;7.80;6.90;;;;;;;-143.84;89.92;44988.13;5090038;28;20471;-75
2021/12/21 05:00:49;;;;;;;12.87;8.37;;;;;;;-143.84;90.14;45003.38;5091801;28;20865;-75
2021/12/21 05:03:17;;;;;;;9.67;7.10;;;;;;;-143.84;90.05;45001.47;5091627;28;20945;-75
2021/12/21 05:05:44;;;;;;;13.77;8.90;;;;;;;-143.84;89.91;45016.69;5090690;28;20450;-76
2021/12/21 05:08:20;;;;;;;8.70;7.07;;;;;;;-143.84;90.38;44971.00;5091225;28;20508;-76
2021/12/21 05:10:50;;;;;;;11.40;8.20;;;;;;;-143.84;90.51;44927.19;5091642;28;20443;-76
2021/12/21 05:13:19;;;;;;;9.53;7.67;;;;;;;-143.84;90.67;44951.97;5090837;28;20436;-75
2021/12/21 05:15:47;;;;;;;8.83;7.53;;;;;;;-143.84;90.92;44915.78;5090367;28;20471;-75
2021/12/21 05:18:16;;;;;;;18.03;7.43;;;;;;;-143.84;90.80;44881.50;5090838;28;20436;-75
2021/12/21 05:20:43;;;;;;;12.87;9.37;;;;;;;-143.84;90.67;44940.53;5090206;28;20436;-75
2021/12/21 05:23:12;;;;;;;15.90;9.83;;;;;;;-143.84;90.93;44892.94;5090600;28;20479;-75
2021/12/21 05:25:41;;;;;;;15.90;9.53;;;;;;;-143.84;91.30;44856.75;5090810;28;20494;-75
2021/12/21 05:28:09;;;;;;;10.40;7.80;;;;;;;-143.84;91.51;44812.97;5090321;28;20988;-75
2021/12/21 05:30:37;;;;;;;10.83;9.20;;;;;;;-143.84;91.29;44820.56;5091007;28;20440;-74
2021/12/21 05:33:05;;;;;;;9.77;7.20;;;;;;;-143.84;91.13;44801.53;5091005;28;21029;-75
2021/12/21 05:35:34;;;;;;;12.13;8.70;;;;;;;-143.84;91.24;44837.72;5090347;28;20476;-74
2021/12/21 05:38:05;;;;;;;12.50;7.90;;;;;;;-143.84;91.25;44820.56;5099214;28;20435;-75
2021/12/21 05:40:37;;;;;;;12.00;8.80;;;;;;;-143.84;91.43;44847.22;5094526;28;20448;-73
2021/12/21 05:43:05;;;;;;;10.70;7.33;;;;;;;-143.84;91.45;44782.50;5088812;28;20475;-76
2021/12/21 05:45:32;;;;;;;9.70;8.20;;;;;;;-143.84;91.26;44792.00;5072856;28;20570;-73
2021/12/21 05:48:00;;;;;;;9.30;6.77;;;;;;;-143.84;91.29;44833.91;5090507;28;20448;-74
2021/12/21 05:50:27;;;;;;;15.47;8.53;;;;;;;-143.84;91.09;44873.88;5090939;28;20805;-72
2021/12/21 05:52:54;;;;;;;15.00;9.47;;;;;;;-143.84;91.29;44868.19;5100216;28;21011;-75
2021/12/21 05:55:23;;;;;;;9.50;7.67;;;;;;;-143.84;91.09;44879.59;5111211;28;20585;-74
2021/12/21 05:57:51;;;;;;;11.10;8.50;;;;;;;-143.84;91.13;44915.78;5110745;28;20811;-74
2021/12/21 06:00:23;;;;;;;11.10;8.33;;;;;;;-143.84;91.04;44889.13;5110687;28;20439;-77
2021/12/21 06:02:50;;;;;;;10.67;7.17;;;;;;;-143.84;91.03;44873.88;5110719;28;20438;-75
2021/12/21 06:05:18;;;;;;;12.87;9.00;;;;;;;-143.84;91.04;44870.09;5110633;28;20446;-76
2021/12/21 06:07:48;;;;;;;13.00;9.70;;;;;;;-143.84;90.87;44923.41;5110600;28;20439;-74
2021/12/21 06:10:20;;;;;;;15.87;8.93;;;;;;;-143.84;90.56;44927.19;5091455;28;20451;-74
2021/12/21 06:13:13;;;;;;;12.37;8.77;;;;;;;-143.84;90.70;44911.97;5089708;28;20986;-74
2021/12/21 06:15:52;;;;;;;12.97;9.30;;;;;;;-143.84;90.41;44967.19;5089986;28;20488;-74
2021/12/21 06:26:46;;;;;;;12.10;8.57;;;;;;;-143.84;89.53;45028.13;5027301;28;20530;-74
2021/12/21 06:29:13;;;;;;;10.90;8.10;;;;;;;-143.84;89.23;45047.16;5074264;28;20436;-74
2021/12/21 06:31:42;;;;;;;10.77;8.00;;;;;;;-143.84;89.18;45056.69;5089741;28;20502;-74
2021/12/21 06:34:10;;;;;;;22.67;8.70;;;;;;;-143.84;88.96;45071.91;5089387;28;20524;-74
2021/12/21 06:36:37;;;;;;;9.77;7.83;;;;;;;-143.84;89.07;45073.81;5089946;28;20862;-74
2021/12/21 06:39:06;;;;;;;15.53;8.47;;;;;;;-143.84;88.99;45075.72;5089643;28;20444;-74
2021/12/21 06:41:34;;;;;;;12.50;8.43;;;;;;;-143.84;89.17;45087.16;5089906;28;20459;-74
2021/12/21 06:44:03;;;;;;;12.30;8.10;;;;;;;-143.84;88.26;45090.97;5089607;28;20442;-74
2021/12/21 06:46:48;;;;;;;13.67;8.77;;;;;;;-143.84;87.98;45081.44;5089674;28;20894;-74
2021/12/21 06:52:02;;;;;;;10.77;8.27;;;;;;;-143.84;86.70;45169.03;5089323;28;20427;-74
2021/12/21 06:54:30;;;;;;;10.20;7.30;;;;;;;-143.84;86.20;45155.69;5089242;28;20444;-74
2021/12/21 06:56:58;;;;;;;9.90;8.70;;;;;;;-143.84;85.74;45157.59;5089368;28;20444;-74
2021/12/21 06:59:26;;;;;;;11.67;8.20;;;;;;;-143.84;84.65;45186.16;5089368;28;20450;-74
2021/12/21 07:01:54;;;;;;;16.10;9.23;;;;;;;-143.84;84.39;45186.16;5089215;28;20454;-74
2021/12/21 07:04:24;;;;;;;10.97;8.20;;;;;;;-143.84;84.06;45191.88;5089100;28;20439;-74
2021/12/21 07:06:52;;;;;;;10.20;8.43;;;;;;;-143.84;83.46;45218.53;5088891;28;21025;-74
2021/12/21 07:09:24;;;;;;;12.57;8.20;;;;;;;-143.84;82.57;45216.63;5089248;28;20455;-74
2021/12/21 07:12:07;;;;;;;11.77;8.33;;;;;;;-143.84;82.27;45216.63;5088757;28;20447;-74
2021/12/21 07:20:17;;;;;;;10.87;7.77;;;;;;;-143.84;80.91;45214.72;5026014;28;20495;-69
2021/12/21 07:22:44;;;;;;;11.70;8.00;;;;;;;-143.84;80.27;45220.44;5076359;28;20455;-70
2021/12/21 07:25:12;;;;;;;13.67;8.27;;;;;;;-143.84;79.51;45247.09;5092154;28;20442;-69
2021/12/21 07:27:40;;;;;;;11.13;9.10;;;;;;;-143.84;79.67;45229.97;5092499;28;20438;-71
2021/12/21 07:30:08;;;;;;;11.27;7.43;;;;;;;-143.84;78.67;45178.56;5092240;28;20447;-71
2021/12/21 07:32:36;;;;;;;9.57;7.90;;;;;;;-143.84;78.88;45207.13;5092242;28;20447;-71
2021/12/21 07:35:05;;;;;;;8.83;7.93;;;;;;;-143.84;78.34;45231.88;5092201;28;20487;-71
2021/12/21 07:37:33;;;;;;;11.63;7.97;;;;;;;-143.84;78.38;45220.44;5092184;28;20526;-71
2021/12/21 07:40:00;;;;;;;10.93;8.03;;;;;;;-143.84;79.17;45229.97;5091886;28;20443;-71
2021/12/21 07:42:28;;;;;;;15.23;9.03;;;;;;;-143.84;79.45;45203.31;5092137;28;20442;-71
2021/12/21 07:44:55;;;;;;;17.10;8.83;;;;;;;-143.84;79.21;45197.59;5091794;28;20450;-71
2021/12/21 07:47:23;;;;;;;14.47;9.57;;;;;;;-143.84;79.81;45231.88;5091886;28;20439;-71
2021/12/21 07:49:51;;;;;;;13.57;10.17;;;;;;;-143.84;79.80;45212.84;5092082;28;20918;-71
2021/12/21 07:52:18;;;;;;;8.43;7.70;;;;;;;-143.84;80.19;45209.03;5091999;28;20445;-71
2021/12/21 07:54:47;;;;;;;11.40;8.63;;;;;;;-143.84;79.99;45220.44;5091492;28;20509;-71
2021/12/21 07:57:14;;;;;;;10.43;8.17;;;;;;;-143.84;80.28;45218.53;5091726;28;20945;-71
2021/12/21 07:59:42;;;;;;;17.30;6.90;;;;;;;-143.84;80.10;45210.94;5091942;28;20438;-71
2021/12/21 08:02:11;;;;;;;8.57;6.77;;;;;;;-143.84;79.89;45214.72;5091870;28;20447;-73
2021/12/21 08:04:39;;;;;;;7.63;6.50;;;;;;;-143.84;79.67;45243.31;5092331;28;20440;-74
2021/12/21 08:07:11;;;;;;;10.53;6.50;;;;;;;-143.84;78.88;45226.16;5092261;28;20506;-73
2021/12/21 08:09:42;;;;;;;10.07;6.63;;;;;;;-143.84;77.83;45210.94;5090196;28;20450;-73
2021/12/21 08:12:15;;;;;;;7.13;6.43;;;;;;;-143.84;76.22;45220.44;5091599;28;20474;-73
2021/12/21 08:14:43;;;;;;;7.03;5.20;;;;;;;-143.84;75.04;45212.84;5091307;28;20537;-73
2021/12/21 08:17:10;;;;;;;11.10;6.73;;;;;;;-143.84;73.11;45262.34;5091260;28;20447;-73
2021/12/21 08:19:38;;;;;;;8.93;6.40;;;;;;;-143.84;72.33;45256.63;5091222;28;20432;-73
2021/12/21 08:22:06;;;;;;;8.50;6.80;;;;;;;-143.84;72.87;45195.69;5091278;28;20436;-73
2021/12/21 08:24:33;;;;;;;7.60;6.60;;;;;;;-143.84;72.99;45252.81;5091141;28;20487;-73
2021/12/21 08:27:03;;;;;;;7.60;6.27;;;;;;;-143.84;71.82;45203.31;5091545;28;20432;-73
2021/12/21 08:29:31;;;;;;;9.10;5.10;;;;;;;-143.84;69.69;45212.84;5091775;28;20452;-73
2021/12/21 08:31:58;;;;;;;6.00;5.43;;;;;;;-143.84;70.00;45222.34;5091068;28;20529;-73
2021/12/21 08:34:26;;;;;;;10.53;5.83;;;;;;;-143.84;69.86;45231.88;5090333;28;20443;-73
2021/12/21 08:36:53;;;;;;;12.67;6.90;;;;;;;-143.84;69.26;45205.22;5090849;28;20483;-73
2021/12/21 08:39:23;;;;;;;6.90;6.10;;;;;;;-143.84;69.41;45224.25;5091469;28;20447;-73
2021/12/21 08:41:56;;;;;;;6.77;6.10;;;;;;;-143.84;68.99;45210.94;5091112;28;20443;-73
2021/12/21 08:44:25;;;;;;;5.93;5.33;;;;;;;-143.84;68.08;45210.94;5090885;28;21065;-73
2021/12/21 08:46:56;;;;;;;6.70;6.07;;;;;;;-143.84;68.07;45209.03;5091167;28;20444;-72
2021/12/21 08:49:24;;;;;;;8.30;7.30;;;;;;;-143.84;68.25;45209.03;5091070;28;20459;-72
2021/12/21 08:51:51;;;;;;;6.50;5.90;;;;;;;-143.84;67.89;45268.06;5091215;28;20504;-72
2021/12/21 08:54:18;;;;;;;7.20;5.60;;;;;;;-143.84;68.18;45226.16;5090804;28;20435;-73
2021/12/21 08:56:48;;;;;;;7.30;6.53;;;;;;;-143.84;69.32;45205.22;5090514;28;20490;-73
2021/12/21 08:59:16;;;;;;;10.43;6.53;;;;;;;-143.84;70.57;45222.34;5090133;28;20444;-74
2021/12/21 09:01:43;;;;;;;7.90;6.73;;;;;;;-143.84;68.57;45220.44;5090160;28;20936;-73
2021/12/21 09:04:15;;;;;;;8.60;7.03;;;;;;;-143.84;67.42;45220.44;5090489;28;20448;-73
2021/12/21 09:06:42;;;;;;;5.97;5.47;;;;;;;-143.84;68.03;45220.44;5090746;28;20447;-74
2021/12/21 09:09:09;;;;;;;9.07;7.60;;;;;;;-143.84;68.24;45201.41;5090655;28;20447;-73
2021/12/21 09:11:37;;;;;;;12.00;7.83;;;;;;;-143.84;69.71;45216.63;5090230;28;20458;-73
2021/12/21 09:14:05;;;;;;;7.83;7.03;;;;;;;-143.84;70.26;45235.69;5090650;28;20929;-73
2021/12/21 09:16:32;;;;;;;8.27;7.47;;;;;;;-143.84;70.68;45224.25;5090225;28;20490;-73
2021/12/21 09:19:01;;;;;;;9.20;7.57;;;;;;;-143.84;71.22;45220.44;5090295;28;20432;-73
2021/12/21 09:21:31;;;;;;;7.50;6.60;;;;;;;-143.84;71.36;45212.84;5090068;28;20449;-73
2021/12/21 09:23:58;;;;;;;7.57;6.73;;;;;;;-143.84;71.91;45214.72;5089890;28;20487;-73
2021/12/21 09:26:27;;;;;;;7.33;6.63;;;;;;;-143.84;72.25;45224.25;5089868;28;20439;-73
2021/12/21 09:28:56;;;;;;;8.20;6.87;;;;;;;-143.84;72.35;45231.88;5089988;28;20930;-73
2021/12/21 09:31:23;;;;;;;9.37;6.90;;;;;;;-143.84;72.87;45235.69;5090345;28;20442;-74
2021/12/21 09:33:51;;;;;;;10.20;6.97;;;;;;;-143.84;73.69;45233.78;5090275;28;20815;-73
2021/12/21 09:36:18;;;;;;;7.93;7.13;;;;;;;-143.84;73.78;45216.63;5089987;28;20489;-73
2021/12/21 09:38:47;;;;;;;8.33;7.53;;;;;;;-143.84;73.62;45239.50;5089731;28;20435;-73
2021/12/21 09:41:14;;;;;;;9.20;6.87;;;;;;;-143.84;73.67;45249.00;5089905;28;20444;-73
2021/12/21 09:43:42;;;;;;;11.20;7.10;;;;;;;-143.84;73.79;45231.88;5089990;28;20458;-73
2021/12/21 09:46:09;;;;;;;8.83;6.97;;;;;;;-143.84;74.18;45222.34;5089856;28;20499;-73
2021/12/21 09:48:37;;;;;;;8.80;7.07;;;;;;;-143.84;74.53;45231.88;5089994;28;20526;-73
2021/12/21 09:51:04;;;;;;;7.43;6.67;;;;;;;-143.84;74.16;45203.31;5089686;28;20479;-73
2021/12/21 09:53:33;;;;;;;7.10;6.50;;;;;;;-143.84;74.16;45209.03;5089973;28;20440;-73
2021/12/21 09:56:02;;;;;;;8.87;6.50;;;;;;;-143.84;72.34;45247.09;5089745;28;20958;-73
2021/12/21 09:58:29;;;;;;;8.40;6.50;;;;;;;-143.84;72.96;45229.97;5089889;28;20463;-78
2021/12/21 10:00:56;;;;;;;6.90;6.20;;;;;;;-143.84;72.28;45224.25;5091855;28;21048;-78
2021/12/21 10:03:24;;;;;;;7.53;6.00;;;;;;;-143.84;71.48;45231.88;5092171;28;20420;-78
2021/12/21 10:06:01;;;;;;;8.40;6.70;;;;;;;-143.84;72.42;45226.16;5090992;28;20488;-78
2021/12/21 10:08:32;;;;;;;8.57;6.93;;;;;;;-143.84;72.67;45216.63;5090983;28;21089;-78
2021/12/21 10:10:59;;;;;;;7.63;5.87;;;;;;;-143.84;71.90;45231.88;5090591;28;21297;-78
2021/12/21 10:13:30;;;;;;;5.73;5.13;;;;;;;-143.84;69.12;45249.00;5090495;28;20947;-78
2021/12/21 10:15:59;;;;;;;5.93;4.53;;;;;;;-143.84;68.52;45214.72;5090869;28;20479;-78
2021/12/21 10:18:29;;;;;;;6.50;5.00;;;;;;;-143.84;69.26;45249.00;5090918;28;20431;-78
2021/12/21 10:21:01;;;;;;;8.33;6.00;;;;;;;-143.84;69.40;45224.25;5090576;28;20499;-78
2021/12/21 10:23:30;;;;;;;5.67;5.17;;;;;;;-143.84;69.88;45262.34;5089868;28;20487;-78
2021/12/21 10:25:59;;;;;;;7.13;5.33;;;;;;;-143.84;70.20;45209.03;5091220;28;20452;-79
2021/12/21 10:28:30;;;;;;;8.43;6.63;;;;;;;-143.84;69.63;45222.34;5091578;28;20463;-78
2021/12/21 10:30:58;;;;;;;5.70;5.20;;;;;;;-143.84;69.48;45224.25;5091287;28;20437;-78
2021/12/21 10:33:27;;;;;;;8.50;5.70;;;;;;;-143.84;69.29;45243.31;5091517;28;20948;-78
2021/12/21 10:35:55;;;;;;;9.17;6.93;;;;;;;-143.84;69.93;45243.31;5091250;28;20485;-78
2021/12/21 10:38:31;;;;;;;17.83;6.93;;;;;;;-143.84;69.71;45228.06;5091232;28;20503;-78
2021/12/21 10:41:07;;;;;;;7.90;6.70;;;;;;;-143.84;70.60;45220.44;5091421;28;20431;-78
2021/12/21 10:43:37;;;;;;;8.20;6.97;;;;;;;-143.84;70.43;45207.13;5091533;28;20453;-78
2021/12/21 10:46:05;;;;;;;7.60;6.27;;;;;;;-143.84;70.22;45216.63;5092225;28;20436;-78
2021/12/21 10:48:35;;;;;;;8.70;6.97;;;;;;;-143.84;70.00;45203.31;5090484;28;20433;-78
2021/12/21 10:51:08;;;;;;;8.33;7.27;;;;;;;-143.84;70.06;45216.63;5091536;28;20445;-78
2021/12/21 10:53:37;;;;;;;10.63;7.80;;;;;;;-143.84;70.53;45231.88;5091439;28;20444;-78
2021/12/21 10:56:07;;;;;;;10.70;8.30;;;;;;;-143.84;71.47;45199.50;5090998;28;20488;-78
2021/12/21 10:58:40;;;;;;;8.70;7.80;;;;;;;-143.84;72.16;45235.69;5095733;28;20443;-78
2021/12/21 11:01:11;;;;;;;12.73;9.33;;;;;;;-143.84;72.09;45228.06;5095519;28;20879;-78
2021/12/21 11:03:46;;;;;;;14.27;10.37;;;;;;;-143.84;73.13;45203.31;5095540;28;20427;-78
2021/12/21 11:06:15;;;;;;;12.03;10.20;;;;;;;-143.84;73.18;45231.88;5095033;28;20574;-78
2021/12/21 11:08:44;;;;;;;14.83;9.93;;;;;;;-143.84;73.76;45241.41;5095293;28;20441;-78
2021/12/21 11:11:22;;;;;;;14.60;10.17;;;;;;;-143.84;74.55;45250.91;5095360;28;20509;-78
2021/12/21 11:14:01;;;;;;;11.50;9.70;;;;;;;-143.84;75.49;45231.88;5094862;28;20439;-78
2021/12/21 11:16:37;;;;;;;17.03;11.97;;;;;;;-143.84;75.14;45264.25;5094355;28;20472;-78
2021/12/21 11:19:04;;;;;;;11.90;9.47;;;;;;;-143.84;75.72;45218.53;5094926;28;20432;-78
2021/12/21 11:21:33;;;;;;;11.63;9.23;;;;;;;-143.84;75.04;45226.16;5095641;28;20416;-78
2021/12/21 11:24:03;;;;;;;11.73;8.97;;;;;;;-143.84;75.69;45224.25;5094611;28;20485;-78
2021/12/21 11:26:33;;;;;;;14.13;9.83;;;;;;;-143.84;75.57;45218.53;5075340;28;20474;-72
2021/12/21 11:29:05;;;;;;;10.93;9.10;;;;;;;-143.84;75.67;45216.63;5092409;28;20449;-72
2021/12/21 11:31:36;;;;;;;7.53;6.83;;;;;;;-143.84;75.53;45237.59;5092678;28;20494;-72
2021/12/21 11:34:04;;;;;;;11.20;8.87;;;;;;;-143.84;76.06;45250.91;5092457;28;20457;-72
2021/12/21 11:39:16;;;;;;;14.50;8.10;;;;;;;-143.84;75.13;45228.06;5092476;28;20419;-72
2021/12/21 11:41:44;;;;;;;12.30;8.17;;;;;;;-143.84;75.61;45233.78;5092115;28;20454;-72
2021/12/21 11:44:20;;;;;;;10.60;9.00;;;;;;;-143.84;76.59;45222.34;5092069;28;20545;-72
2021/12/21 11:46:54;;;;;;;15.10;9.20;;;;;;;-143.84;76.55;45212.84;5091936;28;20522;-72
2021/12/21 11:49:29;;;;;;;14.33;8.40;;;;;;;-143.84;76.23;45224.25;5091837;28;20949;-72
2021/12/21 11:52:10;;;;;;;8.80;7.73;;;;;;;-143.84;74.27;45212.84;5092180;28;20515;-73
2021/12/21 11:54:45;;;;;;;20.47;7.43;;;;;;;-143.84;74.59;45229.97;5091807;28;20597;-71